Time;durP1;ratioP1;P1;durP2;ratioP2;P2;SDS_P1;SDS_P2;PMS_P1;PMS_P2;Temp;Humidity;BMP_temperature;BMP_pressure;BME280_temperature;BME280_humidity;BME280_pressure;Samples;Min_cycle;Max_cycle;Signal;HPM_P1;HPM_P2
2021/04/08 00:00:05;;;;;;;;;;;19.80;56.40;;;;;;5054798;28;1623;-67
2021/04/08 00:02:30;;;;;;;;;;;19.90;56.50;;;;;;5054839;28;1616;-68
2021/04/08 00:04:56;;;;;;;;;;;19.80;56.50;;;;;;5053321;28;1889;-67
2021/04/08 00:07:21;;;;;;;;;;;19.80;56.50;;;;;;5053025;28;1632;-68
2021/04/08 00:09:46;;;;;;;;;;;19.80;56.50;;;;;;5054635;28;1356;-67
2021/04/08 00:12:12;;;;;;;;;;;19.80;56.50;;;;;;5054745;28;1629;-67
2021/04/08 00:14:37;;;;;;;;;;;19.80;56.50;;;;;;5054456;28;1497;-67
2021/04/08 00:17:03;;;;;;;;;;;19.80;56.50;;;;;;5054447;28;1396;-67
2021/04/08 00:19:28;;;;;;;;;;;19.80;56.50;;;;;;5054401;28;1412;-67
2021/04/08 00:21:54;;;;;;;;;;;19.80;56.50;;;;;;5052991;28;1289;-67
2021/04/08 00:24:19;;;;;;;;;;;19.80;56.50;;;;;;5054376;28;1894;-67
2021/04/08 00:26:44;;;;;;;;;;;19.80;56.60;;;;;;5054369;28;1264;-67
2021/04/08 00:29:10;;;;;;;;;;;19.80;56.60;;;;;;5053939;28;1462;-67
2021/04/08 00:31:35;;;;;;;;;;;19.80;56.60;;;;;;5054049;28;1374;-67
2021/04/08 00:34:01;;;;;;;;;;;19.80;56.60;;;;;;5052723;28;1688;-67
2021/04/08 00:36:26;;;;;;;;;;;19.80;56.60;;;;;;5052393;28;1372;-67
2021/04/08 00:38:51;;;;;;;;;;;19.80;56.60;;;;;;5052375;28;1429;-67
2021/04/08 00:41:17;;;;;;;;;;;19.80;56.60;;;;;;5053754;28;1386;-67
2021/04/08 00:43:42;;;;;;;;;;;19.80;56.60;;;;;;5052385;28;1902;-67
2021/04/08 00:46:08;;;;;;;;;;;19.80;56.60;;;;;;5053707;28;1472;-67
2021/04/08 00:48:33;;;;;;;;;;;19.80;56.60;;;;;;5053411;28;1657;-67
2021/04/08 00:50:59;;;;;;;;;;;19.70;56.60;;;;;;5053562;28;1676;-67
2021/04/08 00:53:25;;;;;;;;;;;19.70;56.60;;;;;;5035693;28;1407;-67
2021/04/08 00:55:53;;;;;;;;;;;19.80;56.60;;;;;;5053408;28;1572;-68
2021/04/08 00:58:19;;;;;;;;;;;19.70;56.60;;;;;;5053253;28;1384;-67
2021/04/08 01:00:44;;;;;;;;;;;19.70;56.60;;;;;;5052947;28;1650;-67
2021/04/08 01:03:13;;;;;;;;;;;19.80;56.60;;;;;;5053585;28;1637;-67
2021/04/08 01:05:38;;;;;;;;;;;19.70;56.60;;;;;;5052833;28;1919;-67
2021/04/08 01:08:04;;;;;;;;;;;19.70;56.60;;;;;;5053014;28;1385;-68
2021/04/08 01:10:29;;;;;;;;;;;19.70;56.60;;;;;;5053380;28;1392;-67
2021/04/08 01:13:08;;;;;;;;;;;19.70;56.60;;;;;;5053114;28;1715;-67
2021/04/08 01:15:33;;;;;;;;;;;19.70;56.60;;;;;;5040359;28;1362;-67
2021/04/08 01:18:08;;;;;;;;;;;19.70;56.70;;;;;;5057469;28;1235;-67
2021/04/08 01:20:40;;;;;;;;;;;19.70;56.70;;;;;;5047860;28;1112;-68
2021/04/08 01:23:15;;;;;;;;;;;19.70;57.30;;;;;;5043404;28;1439;-68
2021/04/08 01:25:59;;;;;;;;;;;19.70;56.70;;;;;;5042124;28;1879;-67
2021/04/08 01:28:28;;;;;;;;;;;19.70;57.00;;;;;;5046029;28;1286;-69
2021/04/08 01:30:54;;;;;;;;;;;19.70;56.70;;;;;;5054072;28;1382;-68
2021/04/08 01:33:30;;;;;;;;;;;19.70;56.70;;;;;;5043082;28;1240;-67
2021/04/08 01:35:55;;;;;;;;;;;19.70;56.70;;;;;;5026589;28;1323;-67
2021/04/08 01:38:29;;;;;;;;;;;19.70;56.70;;;;;;5065034;28;1254;-68
2021/04/08 01:40:54;;;;;;;;;;;19.70;56.70;;;;;;5053573;28;1577;-68
2021/04/08 01:43:24;;;;;;;;;;;19.70;56.70;;;;;;5043452;28;1393;-69
2021/04/08 01:45:49;;;;;;;;;;;19.70;56.60;;;;;;5053129;28;1910;-68
2021/04/08 01:48:14;;;;;;;;;;;19.70;56.60;;;;;;5040959;28;1303;-67
2021/04/08 01:50:40;;;;;;;;;;;19.70;56.70;;;;;;5041919;28;1446;-67
2021/04/08 01:53:05;;;;;;;;;;;19.70;56.60;;;;;;5058680;28;1231;-67
2021/04/08 01:55:31;;;;;;;;;;;19.70;56.60;;;;;;5054404;28;1515;-67
2021/04/08 01:57:57;;;;;;;;;;;19.70;56.60;;;;;;5041955;28;1219;-67
2021/04/08 02:00:23;;;;;;;;;;;19.70;56.50;;;;;;5043752;28;1240;-68
2021/04/08 02:02:49;;;;;;;;;;;19.70;56.60;;;;;;5056532;28;1239;-67
2021/04/08 02:05:15;;;;;;;;;;;19.70;56.50;;;;;;5042973;28;2016;-68
2021/04/08 02:07:40;;;;;;;;;;;19.70;56.50;;;;;;5042900;28;1230;-68
2021/04/08 02:10:09;;;;;;;;;;;19.80;56.50;;;;;;5044913;28;1512;-68
2021/04/08 02:12:37;;;;;;;;;;;19.80;56.50;;;;;;5056521;28;1214;-68
2021/04/08 02:15:04;;;;;;;;;;;19.70;56.40;;;;;;5032069;28;1765;-68
2021/04/08 02:17:29;;;;;;;;;;;19.80;56.50;;;;;;5040606;28;1377;-68
2021/04/08 02:19:55;;;;;;;;;;;19.80;56.50;;;;;;5051044;28;1462;-68
2021/04/08 02:22:20;;;;;;;;;;;19.80;56.50;;;;;;5051038;28;1396;-68
2021/04/08 02:24:46;;;;;;;;;;;19.80;56.50;;;;;;5033831;28;1902;-68
2021/04/08 02:27:11;;;;;;;;;;;19.80;56.50;;;;;;5073036;22;3728;-69
2021/04/08 02:29:37;;;;;;;;;;;19.80;56.50;;;;;;5058065;28;1706;-69
2021/04/08 02:32:02;;;;;;;;;;;19.80;56.50;;;;;;5070220;28;1422;-68
2021/04/08 02:34:28;;;;;;;;;;;19.80;56.50;;;;;;5070939;28;1450;-68
2021/04/08 02:36:53;;;;;;;;;;;19.80;56.40;;;;;;5070940;28;1731;-68
2021/04/08 02:39:19;;;;;;;;;;;19.80;56.40;;;;;;5070798;28;1447;-69
2021/04/08 02:41:44;;;;;;;;;;;19.80;56.30;;;;;;5070587;28;1651;-68
2021/04/08 02:44:10;;;;;;;;;;;19.90;56.20;;;;;;5072173;28;1906;-69
2021/04/08 02:46:35;;;;;;;;;;;20.00;56.10;;;;;;5071456;28;1744;-69
2021/04/08 02:49:01;;;;;;;;;;;20.10;55.90;;;;;;5070574;28;1485;-68
2021/04/08 02:51:29;;;;;;;;;;;20.20;55.70;;;;;;5071447;28;1645;-68
2021/04/08 02:53:56;;;;;;;;;;;20.30;55.40;;;;;;5062247;28;1359;-70
2021/04/08 02:56:21;;;;;;;;;;;20.40;55.20;;;;;;5060870;28;1308;-70
2021/04/08 02:58:47;;;;;;;;;;;20.50;55.00;;;;;;5060702;28;1235;-70
2021/04/08 03:01:13;;;;;;;;;;;20.60;54.80;;;;;;5060661;28;1199;-69
2021/04/08 03:03:54;;;;;;;;;;;20.70;54.60;;;;;;5065006;28;1945;-69
2021/04/08 03:06:20;;;;;;;;;;;20.80;54.50;;;;;;5061090;28;1406;-68
2021/04/08 03:08:48;;;;;;;;;;;20.80;54.30;;;;;;5059673;28;1433;-68
2021/04/08 03:11:13;;;;;;;;;;;20.90;54.10;;;;;;5068145;28;1281;-68
2021/04/08 03:13:40;;;;;;;;;;;21.00;54.10;;;;;;5057892;28;1185;-68
2021/04/08 03:16:06;;;;;;;;;;;21.00;53.90;;;;;;5059552;28;1403;-69
2021/04/08 03:18:31;;;;;;;;;;;21.10;53.80;;;;;;5057721;28;1677;-68
2021/04/08 03:20:56;;;;;;;;;;;21.10;53.70;;;;;;5059025;28;1219;-68
2021/04/08 03:23:23;;;;;;;;;;;21.10;53.60;;;;;;5064685;28;1399;-70
2021/04/08 03:25:49;;;;;;;;;;;21.20;53.50;;;;;;5066579;28;1905;-69
2021/04/08 03:28:14;;;;;;;;;;;21.20;53.50;;;;;;5062386;28;1655;-69
2021/04/08 03:30:40;;;;;;;;;;;21.20;53.40;;;;;;5065746;28;1324;-69
2021/04/08 03:33:06;;;;;;;;;;;21.30;53.40;;;;;;5075899;28;1749;-69
2021/04/08 03:35:32;;;;;;;;;;;21.30;53.30;;;;;;5075946;28;1388;-69
2021/04/08 03:37:57;;;;;;;;;;;21.30;53.30;;;;;;5073946;28;1378;-70
2021/04/08 03:40:23;;;;;;;;;;;21.30;53.20;;;;;;5076059;28;1236;-69
2021/04/08 03:42:51;;;;;;;;;;;21.40;53.20;;;;;;5074740;28;1485;-69
2021/04/08 03:45:17;;;;;;;;;;;21.40;53.20;;;;;;5074133;28;1968;-68
2021/04/08 03:47:42;;;;;;;;;;;21.40;53.20;;;;;;5073389;28;1429;-68
2021/04/08 03:50:09;;;;;;;;;;;21.40;53.10;;;;;;5074590;28;1126;-69
2021/04/08 03:52:34;;;;;;;;;;;21.40;53.10;;;;;;5074530;28;1291;-69
2021/04/08 03:54:59;;;;;;;;;;;21.40;53.10;;;;;;5074329;28;1666;-69
2021/04/08 03:57:25;;;;;;;;;;;21.40;53.10;;;;;;5074711;28;1260;-69
2021/04/08 03:59:50;;;;;;;;;;;21.40;53.10;;;;;;5074006;28;1665;-70
2021/04/08 04:02:16;;;;;;;;;;;21.40;53.10;;;;;;5075997;28;1717;-70
2021/04/08 04:04:42;;;;;;;;;;;21.40;53.80;;;;;;5074539;28;1889;-68
2021/04/08 04:07:07;;;;;;;;;;;21.40;53.20;;;;;;5062921;28;1393;-69
2021/04/08 04:09:32;;;;;;;;;;;21.40;53.30;;;;;;5063383;28;1194;-69
2021/04/08 04:11:58;;;;;;;;;;;21.40;53.30;;;;;;5062067;28;1699;-68
2021/04/08 04:14:25;;;;;;;;;;;21.40;53.30;;;;;;5067538;28;1329;-69
2021/04/08 04:16:51;;;;;;;;;;;21.40;53.30;;;;;;5065096;28;1269;-69
2021/04/08 04:19:16;;;;;;;;;;;21.40;53.30;;;;;;5061006;28;1322;-70
2021/04/08 04:21:42;;;;;;;;;;;21.40;53.40;;;;;;5061061;28;1708;-69
2021/04/08 04:24:07;;;;;;;;;;;21.30;53.40;;;;;;5063970;28;1953;-68
2021/04/08 04:26:33;;;;;;;;;;;21.30;53.40;;;;;;5064306;28;1423;-69
2021/04/08 04:28:58;;;;;;;;;;;21.30;53.50;;;;;;5068495;28;1520;-69
2021/04/08 04:31:24;;;;;;;;;;;21.30;53.50;;;;;;5073284;28;1724;-69
2021/04/08 04:33:49;;;;;;;;;;;21.30;53.60;;;;;;5075335;28;1248;-69
2021/04/08 04:36:15;;;;;;;;;;;21.20;53.60;;;;;;5074018;28;1552;-68
2021/04/08 04:38:40;;;;;;;;;;;21.20;53.60;;;;;;5072632;28;1479;-68
2021/04/08 04:41:06;;;;;;;;;;;21.20;53.70;;;;;;5074872;28;1626;-69
2021/04/08 04:43:31;;;;;;;;;;;21.20;53.70;;;;;;5074823;28;1030;-68
2021/04/08 04:45:57;;;;;;;;;;;21.20;53.80;;;;;;5074593;28;1708;-68
2021/04/08 04:48:22;;;;;;;;;;;21.10;53.80;;;;;;5072813;28;1568;-69
2021/04/08 04:50:49;;;;;;;;;;;21.10;53.80;;;;;;5074446;28;1373;-68
2021/04/08 04:53:15;;;;;;;;;;;21.10;53.90;;;;;;5074580;28;1491;-68
2021/04/08 04:55:40;;;;;;;;;;;21.10;53.90;;;;;;5074648;28;1478;-69
2021/04/08 04:58:06;;;;;;;;;;;21.10;54.00;;;;;;5073690;28;1662;-69
2021/04/08 05:00:31;;;;;;;;;;;21.10;54.00;;;;;;5074045;28;1473;-68
2021/04/08 05:02:57;;;;;;;;;;;21.00;54.00;;;;;;5074383;28;1246;-69
2021/04/08 05:05:22;;;;;;;;;;;21.00;54.10;;;;;;5074259;28;1965;-68
2021/04/08 05:07:47;;;;;;;;;;;21.10;54.10;;;;;;5073621;28;1676;-68
2021/04/08 05:10:13;;;;;;;;;;;21.00;54.10;;;;;;5074516;28;1431;-69
2021/04/08 05:12:38;;;;;;;;;;;21.10;54.10;;;;;;5074278;28;1547;-69
2021/04/08 05:15:04;;;;;;;;;;;21.10;54.10;;;;;;5071850;28;1532;-69
2021/04/08 05:17:30;;;;;;;;;;;21.00;54.10;;;;;;5073991;28;1662;-69
2021/04/08 05:19:57;;;;;;;;;;;21.10;54.10;;;;;;5073448;28;1675;-69
2021/04/08 05:22:23;;;;;;;;;;;21.10;54.10;;;;;;5074329;28;839;-69
2021/04/08 05:24:48;;;;;;;;;;;21.10;54.10;;;;;;5071706;28;1901;-69
2021/04/08 05:27:13;;;;;;;;;;;21.10;54.00;;;;;;5072827;28;1350;-69
2021/04/08 05:29:39;;;;;;;;;;;21.10;54.00;;;;;;5060153;28;1650;-69
2021/04/08 05:32:04;;;;;;;;;;;21.10;54.00;;;;;;5073961;28;1065;-69
2021/04/08 05:34:30;;;;;;;;;;;21.10;54.00;;;;;;5064314;28;1778;-66
2021/04/08 05:36:55;;;;;;;;;;;21.10;54.00;;;;;;5065418;28;2098;-67
2021/04/08 05:39:21;;;;;;;;;;;21.10;54.00;;;;;;5063354;28;1486;-67
2021/04/08 05:41:46;;;;;;;;;;;21.10;54.00;;;;;;5072930;28;1344;-68
2021/04/08 05:44:12;;;;;;;;;;;21.10;54.00;;;;;;5071376;28;1906;-68
2021/04/08 05:46:37;;;;;;;;;;;21.10;54.00;;;;;;5071059;28;1650;-67
2021/04/08 05:49:02;;;;;;;;;;;21.10;54.10;;;;;;5071188;28;1259;-67
2021/04/08 05:51:28;;;;;;;;;;;21.10;54.10;;;;;;5072288;28;1623;-67
2021/04/08 05:53:53;;;;;;;;;;;21.10;54.10;;;;;;5072961;28;1373;-67
2021/04/08 05:56:19;;;;;;;;;;;21.10;54.10;;;;;;5071201;28;1553;-67
2021/04/08 05:58:44;;;;;;;;;;;21.10;54.20;;;;;;5070397;28;1808;-68
2021/04/08 06:01:10;;;;;;;;;;;21.00;54.10;;;;;;5072557;28;1613;-67
2021/04/08 06:03:35;;;;;;;;;;;21.00;54.20;;;;;;5070899;28;1965;-67
2021/04/08 06:06:00;;;;;;;;;;;21.00;54.20;;;;;;5067422;28;1700;-68
2021/04/08 06:08:26;;;;;;;;;;;21.00;54.20;;;;;;5064735;28;1339;-68
2021/04/08 06:10:51;;;;;;;;;;;21.00;54.30;;;;;;5073002;28;1036;-68
2021/04/08 06:13:17;;;;;;;;;;;21.00;54.30;;;;;;5070249;28;1650;-66
2021/04/08 06:15:42;;;;;;;;;;;20.90;54.30;;;;;;5070877;28;1702;-69
2021/04/08 06:18:08;;;;;;;;;;;21.00;54.40;;;;;;5071077;28;1414;-69
2021/04/08 06:20:33;;;;;;;;;;;20.90;54.30;;;;;;5071815;28;1776;-68
2021/04/08 06:22:59;;;;;;;;;;;20.90;54.40;;;;;;5072243;28;1590;-68
2021/04/08 06:25:24;;;;;;;;;;;20.90;54.40;;;;;;5070402;28;1949;-68
2021/04/08 06:27:50;;;;;;;;;;;20.90;54.50;;;;;;5065107;28;1663;-67
2021/04/08 06:30:16;;;;;;;;;;;20.80;54.50;;;;;;5071268;28;1596;-66
2021/04/08 06:32:41;;;;;;;;;;;20.80;54.50;;;;;;5067258;28;1631;-67
2021/04/08 06:35:07;;;;;;;;;;;20.80;54.60;;;;;;5047373;28;2061;-67
2021/04/08 06:37:32;;;;;;;;;;;20.80;54.60;;;;;;5064082;28;1695;-68
2021/04/08 06:39:58;;;;;;;;;;;20.80;54.60;;;;;;5071175;28;1797;-68
2021/04/08 06:42:23;;;;;;;;;;;20.80;54.60;;;;;;5071010;28;1654;-68
2021/04/08 06:44:52;;;;;;;;;;;20.80;54.60;;;;;;5071867;28;1898;-68
2021/04/08 06:47:28;;;;;;;;;;;20.80;54.70;;;;;;5072104;28;1596;-68
2021/04/08 06:49:54;;;;;;;;;;;20.80;54.80;;;;;;5072817;28;1555;-68
2021/04/08 06:52:19;;;;;;;;;;;20.80;54.80;;;;;;5071448;28;1434;-68
2021/04/08 06:54:45;;;;;;;;;;;20.80;54.80;;;;;;5072671;28;1719;-68
2021/04/08 06:57:10;;;;;;;;;;;20.70;54.80;;;;;;5071929;28;1493;-68
2021/04/08 06:59:36;;;;;;;;;;;20.70;54.80;;;;;;5071175;28;1681;-68
2021/04/08 07:02:01;;;;;;;;;;;20.70;54.80;;;;;;5071111;28;1756;-67
2021/04/08 07:04:27;;;;;;;;;;;20.70;54.90;;;;;;5071503;28;1894;-68
2021/04/08 07:06:52;;;;;;;;;;;20.70;54.90;;;;;;5072418;28;1563;-67
2021/04/08 07:09:17;;;;;;;;;;;20.70;54.90;;;;;;5071141;28;1543;-68
2021/04/08 07:11:43;;;;;;;;;;;20.70;54.90;;;;;;5070979;28;1595;-67
2021/04/08 07:14:09;;;;;;;;;;;20.70;55.00;;;;;;5072230;28;1414;-67
2021/04/08 07:16:35;;;;;;;;;;;20.70;55.00;;;;;;5071091;28;1369;-67
2021/04/08 07:19:00;;;;;;;;;;;20.60;55.00;;;;;;5069991;28;1633;-67
2021/04/08 07:21:27;;;;;;;;;;;20.60;55.00;;;;;;5071911;28;1424;-67
2021/04/08 07:24:15;;;;;;;;;;;20.60;55.00;;;;;;5072282;28;1898;-67
2021/04/08 07:26:58;;;;;;;;;;;20.60;55.00;;;;;;5066121;28;1682;-67
2021/04/08 07:29:24;;;;;;;;;;;20.60;55.10;;;;;;5065721;28;1403;-67
2021/04/08 07:31:50;;;;;;;;;;;20.60;55.10;;;;;;5072239;28;1406;-67
2021/04/08 07:34:31;;;;;;;;;;;20.60;55.10;;;;;;5072070;28;1343;-67
2021/04/08 07:36:56;;;;;;;;;;;20.60;55.10;;;;;;5072302;28;1449;-68
2021/04/08 07:39:22;;;;;;;;;;;20.60;55.20;;;;;;5066838;28;1379;-69
2021/04/08 07:42:00;;;;;;;;;;;20.60;55.20;;;;;;5061672;28;1647;-69
2021/04/08 07:44:26;;;;;;;;;;;20.50;55.20;;;;;;5070348;28;1905;-68
2021/04/08 07:46:51;;;;;;;;;;;20.50;55.20;;;;;;5070633;28;1661;-70
2021/04/08 07:49:26;;;;;;;;;;;20.50;55.20;;;;;;5070962;28;1567;-69
2021/04/08 07:51:52;;;;;;;;;;;20.50;55.30;;;;;;5070308;28;1598;-69
2021/04/08 07:54:17;;;;;;;;;;;20.50;55.30;;;;;;5071835;28;1583;-69
2021/04/08 07:56:43;;;;;;;;;;;20.50;55.30;;;;;;5070924;28;1329;-68
2021/04/08 07:59:18;;;;;;;;;;;20.50;55.40;;;;;;5070140;28;1813;-68
2021/04/08 08:01:44;;;;;;;;;;;20.50;55.40;;;;;;5072041;28;1634;-69
2021/04/08 08:04:22;;;;;;;;;;;20.40;55.40;;;;;;5070753;28;1893;-69
2021/04/08 08:06:47;;;;;;;;;;;20.50;55.40;;;;;;5070683;28;1480;-69
2021/04/08 08:09:13;;;;;;;;;;;20.50;55.50;;;;;;5069568;28;1695;-69
2021/04/08 08:11:39;;;;;;;;;;;20.50;55.50;;;;;;5075110;28;1608;-69
2021/04/08 08:14:04;;;;;;;;;;;20.40;55.40;;;;;;5073404;28;1419;-69
2021/04/08 08:16:30;;;;;;;;;;;20.40;55.50;;;;;;5074904;28;1541;-69
2021/04/08 08:18:57;;;;;;;;;;;20.40;55.50;;;;;;5074331;28;1181;-69
2021/04/08 08:21:28;;;;;;;;;;;20.40;55.50;;;;;;5074847;28;1649;-69
2021/04/08 08:23:54;;;;;;;;;;;20.40;55.60;;;;;;5075241;28;2021;-69
2021/04/08 08:26:30;;;;;;;;;;;20.40;55.50;;;;;;5091929;22;1944;-70
2021/04/08 08:28:57;;;;;;;;;;;20.40;55.60;;;;;;5023781;28;1378;-70
2021/04/08 08:31:41;;;;;;;;;;;20.40;55.60;;;;;;5052765;28;1666;-69
2021/04/08 08:34:09;;;;;;;;;;;20.40;55.60;;;;;;5055093;28;1670;-70
2021/04/08 08:36:34;;;;;;;;;;;20.40;55.60;;;;;;5037356;28;1386;-70
2021/04/08 08:39:01;;;;;;;;;;;20.40;55.60;;;;;;5036970;28;1707;-69
2021/04/08 08:41:29;;;;;;;;;;;20.40;55.60;;;;;;5037409;28;1405;-70
2021/04/08 08:43:55;;;;;;;;;;;20.30;55.60;;;;;;5037058;28;1977;-70
2021/04/08 08:46:20;;;;;;;;;;;20.30;55.60;;;;;;5037112;28;1524;-70
2021/04/08 08:48:46;;;;;;;;;;;20.30;55.70;;;;;;5036660;28;1676;-69
2021/04/08 08:51:12;;;;;;;;;;;20.30;55.70;;;;;;5037174;28;1387;-69
2021/04/08 08:53:37;;;;;;;;;;;20.30;55.60;;;;;;5036831;28;1374;-68
2021/04/08 08:56:03;;;;;;;;;;;20.20;55.50;;;;;;5053598;28;1295;-70
2021/04/08 08:58:28;;;;;;;;;;;20.30;55.60;;;;;;5035390;28;1406;-69
2021/04/08 09:00:56;;;;;;;;;;;20.30;55.60;;;;;;5036557;28;1603;-67
2021/04/08 09:03:22;;;;;;;;;;;20.30;55.60;;;;;;5036756;28;1267;-68
2021/04/08 09:05:47;;;;;;;;;;;20.20;55.60;;;;;;5054302;28;1973;-69
2021/04/08 09:08:13;;;;;;;;;;;20.20;55.60;;;;;;5036480;28;1704;-70
2021/04/08 09:10:40;;;;;;;;;;;20.20;55.70;;;;;;5036868;28;1697;-68
2021/04/08 09:13:06;;;;;;;;;;;20.20;55.70;;;;;;5036065;28;1593;-67
2021/04/08 09:15:31;;;;;;;;;;;20.20;55.70;;;;;;5054498;28;1155;-69
2021/04/08 09:18:01;;;;;;;;;;;20.20;55.80;;;;;;5053879;28;1371;-69
2021/04/08 09:20:26;;;;;;;;;;;20.20;55.80;;;;;;5054060;28;1408;-67
2021/04/08 09:22:52;;;;;;;;;;;20.20;55.80;;;;;;5036444;28;1344;-69
2021/04/08 09:25:20;;;;;;;;;;;20.20;55.90;;;;;;5053373;28;1997;-69
2021/04/08 09:27:49;;;;;;;;;;;20.20;55.80;;;;;;5051882;28;1637;-69
2021/04/08 09:30:28;;;;;;;;;;;20.20;55.90;;;;;;5035530;28;1714;-70
2021/04/08 09:32:56;;;;;;;;;;;20.20;55.90;;;;;;5035823;28;1689;-70
2021/04/08 09:35:25;;;;;;;;;;;20.20;55.90;;;;;;5053755;28;1368;-71
2021/04/08 09:37:51;;;;;;;;;;;20.20;55.90;;;;;;5035611;28;1403;-69
2021/04/08 09:40:28;;;;;;;;;;;20.20;55.90;;;;;;5053826;28;1424;-71
2021/04/08 09:42:55;;;;;;;;;;;20.20;55.90;;;;;;5053657;28;1401;-68
2021/04/08 09:45:20;;;;;;;;;;;20.20;55.90;;;;;;5036258;28;1922;-70
2021/04/08 09:47:46;;;;;;;;;;;20.20;55.90;;;;;;5053304;28;1410;-71
2021/04/08 09:50:30;;;;;;;;;;;20.20;55.90;;;;;;5048969;28;1783;-71
2021/04/08 09:52:56;;;;;;;;;;;20.20;55.90;;;;;;5051435;28;1357;-69
2021/04/08 09:55:31;;;;;;;;;;;20.20;55.90;;;;;;5052496;28;1366;-70
2021/04/08 09:57:59;;;;;;;;;;;20.20;55.90;;;;;;5014316;28;1552;-69
2021/04/08 10:00:24;;;;;;;;;;;20.10;55.90;;;;;;5048315;28;1646;-70
2021/04/08 10:02:56;;;;;;;;;;;20.20;55.90;;;;;;5052075;28;1345;-69
2021/04/08 10:05:22;;;;;;;;;;;20.20;55.90;;;;;;5051850;28;1902;-68
2021/04/08 10:07:51;;;;;;;;;;;20.10;55.90;;;;;;5051842;28;1660;-70
2021/04/08 10:10:17;;;;;;;;;;;20.10;55.90;;;;;;5034472;28;1375;-70
2021/04/08 10:12:43;;;;;;;;;;;20.10;55.90;;;;;;5052099;28;1621;-70
2021/04/08 10:15:08;;;;;;;;;;;20.10;55.90;;;;;;5051922;28;1365;-68
2021/04/08 10:17:34;;;;;;;;;;;20.10;55.90;;;;;;5033894;28;1717;-70
2021/04/08 10:20:00;;;;;;;;;;;20.10;55.90;;;;;;5034151;28;1345;-70
2021/04/08 10:22:25;;;;;;;;;;;20.10;55.90;;;;;;5052317;28;1334;-70
2021/04/08 10:24:51;;;;;;;;;;;20.10;55.90;;;;;;5051851;28;1961;-68
2021/04/08 10:27:18;;;;;;;;;;;20.10;55.90;;;;;;5051099;28;1647;-70
2021/04/08 10:29:43;;;;;;;;;;;20.10;55.90;;;;;;5034073;28;1650;-69
2021/04/08 10:32:09;;;;;;;;;;;20.10;56.00;;;;;;5033196;28;1670;-68
2021/04/08 10:34:35;;;;;;;;;;;20.10;55.90;;;;;;5034007;28;1377;-70
2021/04/08 10:37:01;;;;;;;;;;;20.10;55.90;;;;;;5052433;28;1352;-66
2021/04/08 10:39:37;;;;;;;;;;;20.10;56.00;;;;;;5052619;28;1432;-70
2021/04/08 10:42:07;;;;;;;;;;;20.10;55.90;;;;;;5034960;28;1682;-70
2021/04/08 10:44:36;;;;;;;;;;;20.10;56.00;;;;;;5015179;28;1963;-70
2021/04/08 10:47:02;;;;;;;;;;;20.10;56.10;;;;;;5044715;28;1652;-69
2021/04/08 10:49:28;;;;;;;;;;;20.10;56.00;;;;;;5034568;28;1949;-70
2021/04/08 10:51:53;;;;;;;;;;;20.10;56.00;;;;;;5034728;28;1454;-69
2021/04/08 10:54:19;;;;;;;;;;;20.10;56.00;;;;;;5034866;28;1746;-69
2021/04/08 10:56:48;;;;;;;;;;;20.10;56.00;;;;;;5052386;28;1730;-70
2021/04/08 10:59:14;;;;;;;;;;;20.10;56.00;;;;;;5014711;28;1681;-69
2021/04/08 11:01:39;;;;;;;;;;;20.10;56.10;;;;;;5027628;28;1671;-69
2021/04/08 11:04:05;;;;;;;;;;;20.10;56.10;;;;;;5052379;28;1941;-69
2021/04/08 11:06:32;;;;;;;;;;;20.10;56.10;;;;;;5034461;28;1387;-69
2021/04/08 11:08:57;;;;;;;;;;;20.10;56.10;;;;;;5052184;28;1355;-69
2021/04/08 11:11:23;;;;;;;;;;;20.10;56.10;;;;;;5052445;28;1832;-68
2021/04/08 11:13:49;;;;;;;;;;;20.10;56.10;;;;;;5052442;28;1465;-68
2021/04/08 11:16:14;;;;;;;;;;;20.10;56.10;;;;;;5052120;28;1351;-69
2021/04/08 11:18:39;;;;;;;;;;;20.10;56.10;;;;;;5033767;28;1366;-69
2021/04/08 11:21:05;;;;;;;;;;;20.10;56.10;;;;;;5033793;28;1709;-68
2021/04/08 11:23:30;;;;;;;;;;;20.10;56.20;;;;;;5034063;28;1773;-69
2021/04/08 11:26:02;;;;;;;;;;;20.10;56.10;;;;;;5034770;28;1906;-69
2021/04/08 11:28:28;;;;;;;;;;;20.10;56.10;;;;;;5034644;28;2120;-69
2021/04/08 11:30:53;;;;;;;;;;;20.10;56.10;;;;;;5033718;28;1248;-69
2021/04/08 11:33:25;;;;;;;;;;;20.10;56.10;;;;;;5029645;28;2087;-70
2021/04/08 11:35:51;;;;;;;;;;;20.10;56.10;;;;;;5041297;28;1443;-69
2021/04/08 11:38:17;;;;;;;;;;;20.10;56.20;;;;;;5033376;28;1462;-68
2021/04/08 11:40:46;;;;;;;;;;;20.10;56.10;;;;;;5047238;28;1594;-69
2021/04/08 11:43:18;;;;;;;;;;;20.00;56.10;;;;;;5021984;28;1596;-70
2021/04/08 11:45:44;;;;;;;;;;;20.00;56.10;;;;;;5032681;28;1894;-69
2021/04/08 11:48:09;;;;;;;;;;;20.10;56.10;;;;;;5036242;28;1377;-68
2021/04/08 11:50:35;;;;;;;;;;;20.00;56.10;;;;;;5055025;28;1389;-68
2021/04/08 11:53:11;;;;;;;;;;;20.00;56.10;;;;;;5036752;28;1720;-68
2021/04/08 11:55:46;;;;;;;;;;;20.00;56.10;;;;;;5054602;28;1339;-68
2021/04/08 11:58:13;;;;;;;;;;;20.00;56.10;;;;;;5047212;28;1226;-68
2021/04/08 12:00:39;;;;;;;;;;;20.00;56.10;;;;;;5042519;28;1482;-69
2021/04/08 12:03:17;;;;;;;;;;;20.00;56.10;;;;;;5026253;28;1329;-67
2021/04/08 12:05:43;;;;;;;;;;;20.00;56.10;;;;;;5045118;28;2290;-67
2021/04/08 12:08:08;;;;;;;;;;;20.00;56.10;;;;;;5045104;28;1387;-69
2021/04/08 12:10:34;;;;;;;;;;;20.10;56.10;;;;;;5047780;28;1782;-69
2021/04/08 12:13:00;;;;;;;;;;;20.10;55.90;;;;;;5044926;28;1264;-68
2021/04/08 12:15:32;;;;;;;;;;;20.20;55.90;;;;;;5028028;28;1500;-69
2021/04/08 12:17:58;;;;;;;;;;;20.30;55.80;;;;;;5045499;28;1441;-70
2021/04/08 12:20:24;;;;;;;;;;;20.30;55.50;;;;;;5052247;28;1378;-68
2021/04/08 12:22:49;;;;;;;;;;;20.40;55.40;;;;;;5055358;28;1652;-68
2021/04/08 12:25:17;;;;;;;;;;;20.50;55.20;;;;;;5037680;28;1906;-68
2021/04/08 12:27:43;;;;;;;;;;;20.60;55.10;;;;;;5037216;28;1654;-68
2021/04/08 12:30:08;;;;;;;;;;;20.70;54.90;;;;;;5036525;28;1625;-69
2021/04/08 12:32:34;;;;;;;;;;;20.70;54.70;;;;;;5029917;28;1335;-69
2021/04/08 12:34:59;;;;;;;;;;;20.80;54.60;;;;;;5029262;28;1292;-67
2021/04/08 12:37:25;;;;;;;;;;;20.80;54.50;;;;;;5044898;28;1284;-68
2021/04/08 12:39:51;;;;;;;;;;;20.90;54.40;;;;;;5048548;28;1165;-68
2021/04/08 12:42:17;;;;;;;;;;;20.90;54.30;;;;;;5046144;28;1276;-68
2021/04/08 12:44:42;;;;;;;;;;;21.00;54.20;;;;;;5048773;28;1914;-70
2021/04/08 12:47:08;;;;;;;;;;;21.00;54.10;;;;;;5047678;28;1706;-69
2021/04/08 12:49:34;;;;;;;;;;;21.00;54.00;;;;;;5038805;28;1403;-71
2021/04/08 12:51:59;;;;;;;;;;;21.00;53.90;;;;;;5045937;28;1078;-72
2021/04/08 12:54:25;;;;;;;;;;;21.10;53.90;;;;;;5048755;28;1176;-71
2021/04/08 12:56:50;;;;;;;;;;;21.10;53.80;;;;;;5048781;28;1361;-70
2021/04/08 12:59:16;;;;;;;;;;;21.10;53.80;;;;;;5038843;28;1193;-71
2021/04/08 13:01:41;;;;;;;;;;;21.10;53.70;;;;;;5045702;28;1232;-71
2021/04/08 13:04:07;;;;;;;;;;;21.20;53.70;;;;;;5044398;28;1945;-70
2021/04/08 13:06:32;;;;;;;;;;;21.20;53.70;;;;;;5040642;28;1466;-71
2021/04/08 13:08:57;;;;;;;;;;;21.20;53.70;;;;;;5054304;28;1172;-71
2021/04/08 13:11:23;;;;;;;;;;;21.20;53.60;;;;;;5054343;28;1340;-70
2021/04/08 13:13:49;;;;;;;;;;;21.20;53.60;;;;;;5054111;28;1343;-69
2021/04/08 13:16:14;;;;;;;;;;;21.30;53.60;;;;;;5036435;28;1267;-71
2021/04/08 13:18:39;;;;;;;;;;;21.30;53.60;;;;;;5053688;28;1321;-70
2021/04/08 13:21:05;;;;;;;;;;;21.30;53.60;;;;;;5053716;28;1308;-69
2021/04/08 13:23:30;;;;;;;;;;;21.30;53.60;;;;;;5035783;28;1701;-70
2021/04/08 13:25:56;;;;;;;;;;;21.30;53.50;;;;;;5053878;28;1898;-70
2021/04/08 13:28:21;;;;;;;;;;;21.30;53.50;;;;;;5053411;28;1370;-70
2021/04/08 13:30:46;;;;;;;;;;;21.30;54.10;;;;;;5053921;28;1366;-71
2021/04/08 13:33:12;;;;;;;;;;;21.30;53.50;;;;;;5053793;28;1306;-70
2021/04/08 13:35:38;;;;;;;;;;;21.30;53.50;;;;;;5053640;28;1262;-69
2021/04/08 13:38:04;;;;;;;;;;;21.30;53.50;;;;;;5053364;28;1393;-70
2021/04/08 13:40:29;;;;;;;;;;;21.30;53.50;;;;;;5036131;28;1304;-71
2021/04/08 13:42:55;;;;;;;;;;;21.30;53.50;;;;;;5053681;28;1363;-70
2021/04/08 13:45:20;;;;;;;;;;;21.30;53.50;;;;;;5050434;28;1902;-70
2021/04/08 13:47:46;;;;;;;;;;;21.30;53.50;;;;;;5038251;28;1362;-72
2021/04/08 13:50:11;;;;;;;;;;;21.30;53.50;;;;;;5026514;28;1268;-71
2021/04/08 13:52:37;;;;;;;;;;;21.30;53.50;;;;;;5029371;28;1459;-70
2021/04/08 13:55:03;;;;;;;;;;;21.30;53.60;;;;;;5027393;28;1608;-69
2021/04/08 13:57:28;;;;;;;;;;;21.30;53.60;;;;;;5029814;28;1319;-69
2021/04/08 13:59:54;;;;;;;;;;;21.30;53.60;;;;;;5046810;28;1295;-69
2021/04/08 14:02:21;;;;;;;;;;;21.30;53.70;;;;;;5049457;28;1240;-69
2021/04/08 14:04:47;;;;;;;;;;;21.20;53.70;;;;;;5023092;28;1894;-69
2021/04/08 14:07:12;;;;;;;;;;;21.30;53.70;;;;;;5045977;28;1380;-69
2021/04/08 14:09:38;;;;;;;;;;;21.20;53.70;;;;;;5045862;28;1286;-70
2021/04/08 14:12:03;;;;;;;;;;;21.20;53.70;;;;;;5046600;28;1404;-70
2021/04/08 14:14:29;;;;;;;;;;;21.20;53.80;;;;;;5044055;28;1284;-69
2021/04/08 14:16:54;;;;;;;;;;;21.20;53.80;;;;;;5029123;28;1267;-70
2021/04/08 14:19:21;;;;;;;;;;;21.20;53.90;;;;;;5047646;28;1212;-69
2021/04/08 14:21:46;;;;;;;;;;;21.20;53.90;;;;;;5017229;28;1386;-69
2021/04/08 14:24:12;;;;;;;;;;;21.20;53.90;;;;;;5045112;28;1964;-69
2021/04/08 14:26:37;;;;;;;;;;;21.20;53.90;;;;;;5018984;28;1431;-68